Weather History for KSDA - April, 2013

Change the Weather History Date:

Wednesday, April 17, 2013

  Actual Average Record
Temperature  
Mean Temperature 42 °F -  
Max Temperature 46 °F 65 °F 89 °F (2002)
Min Temperature 39 °F 42 °F 23 °F (1956)
Degree Days  
Heating Degree Days 22    
Moisture  
Dew Point 37 °F    
Average Humidity 79    
Maximum Humidity 87    
Minimum Humidity 53    
Precipitation  
Precipitation 1.76 in - - ()
Sea Level Pressure  
Sea Level Pressure 29.91 in    
Wind  
Wind Speed 11 mph (NE)    
Max Wind Speed 25 mph    
Max Gust Speed 36 mph    
Visibility 8 miles    
Events Rain    
Averages and records for this station are not official NWS values.
T = Trace of Precipitation, MM = Missing Value Source: NWS Daily Summary

Daily Weather History Graph

Daily Weather History Graph

Search for Another Location

Airport or City:

Trip Planner

Search our weather history database for the weather conditions in past years. The results will help you decide how hot, cold, wet, or windy it might be!

Date:

Astronomy

Apr. 17, 2013 Rise Set
Actual Time 6:39 AM CDT 8:03 PM CDT
Civil Twilight 6:10 AM CDT 8:32 PM CDT
Nautical Twilight 5:36 AM CDT 9:06 PM CDT
Astronomical Twilight 5:00 AM CDT 9:42 PM CDT
Moon 11:53 AM CDT (4/17) 1:42 AM CDT (4/17)
Length of Visible Light 14h 21m
Length of Day
13h 24m
Waxing Crescent, 42% of the Moon is Illuminated
Apr 17
Waxing Crescent
Apr 18
First Quarter
Apr 25
Full
May 2
Last Quarter
May 9
New

Hourly Weather History & Observations

Time (CDT) Temp. Windchill Dew Point Humidity Pressure Visibility Wind Dir Wind Speed Gust Speed Precip Events Conditions
12:15 AM 46.4 °F 40.7 °F 30.2 °F 53% 30.16 in 10.0 mi ENE 12.7 mph - N/A   Overcast
12:35 AM 46.4 °F 40.7 °F 32.0 °F 57% 30.15 in 10.0 mi ENE 12.7 mph - N/A   Overcast
12:55 AM 46.4 °F 41.5 °F 32.0 °F 57% 30.16 in 10.0 mi ENE 10.4 mph - N/A   Overcast
1:15 AM 46.4 °F 40.7 °F 32.0 °F 57% 30.15 in 10.0 mi ENE 12.7 mph - N/A   Overcast
1:35 AM 46.4 °F 41.5 °F 32.0 °F 57% 30.13 in 10.0 mi ENE 10.4 mph - N/A   Overcast
1:55 AM 46.4 °F 41.5 °F 33.8 °F 62% 30.13 in 10.0 mi ENE 10.4 mph - N/A   Drizzle
2:15 AM 44.6 °F 37.8 °F 33.8 °F 66% 30.09 in 10.0 mi ENE 15.0 mph 18.4 mph N/A   Overcast
2:35 AM 44.6 °F 39.2 °F 33.8 °F 66% 30.11 in 10.0 mi ENE 10.4 mph - N/A   Overcast
2:55 AM 44.6 °F 38.4 °F 33.8 °F 66% 30.09 in 10.0 mi ENE 12.7 mph - N/A   Overcast
3:15 AM 44.6 °F 38.8 °F 33.8 °F 66% 30.09 in 10.0 mi East 11.5 mph 16.1 mph N/A Rain Light Rain
3:35 AM 44.6 °F 38.8 °F 35.6 °F 71% 30.06 in 10.0 mi East 11.5 mph - N/A   Drizzle
3:55 AM 42.8 °F 38.0 °F 35.6 °F 76% 30.08 in 10.0 mi East 8.1 mph 11.5 mph N/A   Overcast
4:15 AM 42.8 °F 38.0 °F 35.6 °F 76% 30.06 in 10.0 mi ENE 8.1 mph - N/A Rain Light Rain
4:35 AM 42.8 °F 36.6 °F 35.6 °F 76% 30.04 in 10.0 mi ENE 11.5 mph - N/A   Overcast
4:55 AM 42.8 °F 37.0 °F 35.6 °F 76% 30.03 in 10.0 mi ENE 10.4 mph - N/A   Overcast
5:15 AM 42.8 °F 37.0 °F 35.6 °F 76% 30.00 in 10.0 mi ENE 10.4 mph - N/A   Overcast
5:35 AM 42.8 °F 36.2 °F 35.6 °F 76% 29.96 in 10.0 mi East 12.7 mph - N/A   Overcast
5:55 AM 42.8 °F 35.8 °F 37.4 °F 81% 29.97 in 10.0 mi East 13.8 mph 18.4 mph N/A   Light Drizzle
6:15 AM 42.8 °F 34.8 °F 37.4 °F 81% 30.06 in 2.5 mi West 17.3 mph 21.9 mph 0.07 in Rain Heavy Rain
6:35 AM 42.8 °F 38.6 °F 37.4 °F 81% 29.99 in 10.0 mi NNE 6.9 mph 21.9 mph 0.20 in Rain Light Rain
6:55 AM 42.8 °F 36.2 °F 37.4 °F 81% 30.08 in 2.5 mi NW 12.7 mph 35.7 mph 0.35 in Rain Heavy Rain
7:15 AM 42.8 °F 37.5 °F 37.4 °F 81% 30.04 in 3.0 mi ENE 9.2 mph - 0.16 in   Overcast
7:35 AM 42.8 °F 33.1 °F 37.4 °F 81% 29.90 in 7.0 mi NE 25.3 mph 29.9 mph 0.23 in Rain Light Rain
7:55 AM 41.0 °F 35.2 °F 37.4 °F 87% 29.98 in 10.0 mi ENE 9.2 mph - 0.25 in Rain Light Rain
8:15 AM 42.8 °F 38.0 °F 37.4 °F 81% 30.01 in 5.0 mi ESE 8.1 mph 12.7 mph 0.07 in Rain Heavy Rain
8:35 AM 42.8 °F 34.5 °F 39.2 °F 87% 29.92 in 7.0 mi East 18.4 mph 24.2 mph 0.14 in Rain Rain
9:15 AM 42.8 °F 34.5 °F 39.2 °F 87% 29.91 in 7.0 mi ESE 18.4 mph 26.5 mph 0.02 in Rain Rain
9:35 AM 42.8 °F 37.0 °F 39.2 °F 87% 29.94 in 10.0 mi East 10.4 mph 18.4 mph 0.04 in Rain Rain
9:55 AM 42.8 °F 38.0 °F 39.2 °F 87% 29.95 in 5.0 mi SE 8.1 mph - 0.11 in Rain Rain
10:15 AM 44.6 °F 42.2 °F 39.2 °F 81% 29.94 in 5.0 mi ENE 4.6 mph - 0.08 in Rain Heavy Rain
10:35 AM 44.6 °F - 39.2 °F 81% 29.93 in 7.0 mi Calm Calm - 0.11 in Rain Rain
10:55 AM 44.6 °F 40.2 °F 39.2 °F 81% 29.90 in 7.0 mi East 8.1 mph - 0.15 in Rain Light Rain
11:15 AM 44.6 °F - 39.2 °F 81% 29.92 in 10.0 mi Calm Calm - 0.01 in Rain Light Rain
11:35 AM 44.6 °F 40.7 °F 39.2 °F 81% 29.90 in 7.0 mi ENE 6.9 mph - 0.01 in Rain Light Rain
11:55 AM 44.6 °F 40.2 °F 39.2 °F 81% 29.90 in 5.0 mi NNE 8.1 mph - 0.04 in Rain Heavy Rain
12:15 PM 44.6 °F 43.1 °F 39.2 °F 81% 29.91 in 5.0 mi North 3.5 mph - 0.04 in Rain Rain
12:35 PM 44.6 °F 42.2 °F 41.0 °F 87% 29.88 in 10.0 mi NNE 4.6 mph - 0.20 in Rain Light Rain
12:55 PM 44.6 °F 39.7 °F 39.2 °F 81% 29.86 in 7.0 mi NE 9.2 mph - 0.20 in Rain Light Rain
1:15 PM 44.6 °F 42.2 °F 39.2 °F 81% 29.88 in 3.0 mi North 4.6 mph - 0.04 in Rain Heavy Rain
1:35 PM 44.6 °F 39.7 °F 39.2 °F 81% 29.85 in 7.0 mi NNE 9.2 mph - 0.06 in Rain Light Rain
1:55 PM 44.6 °F 40.7 °F 39.2 °F 81% 29.85 in 7.0 mi NE 6.9 mph - 0.06 in Rain Light Rain
2:15 PM 44.6 °F 41.4 °F 39.2 °F 81% 29.88 in 7.0 mi North 5.8 mph - N/A   Overcast
2:35 PM 44.6 °F 39.7 °F 39.2 °F 81% 29.84 in 7.0 mi NNE 9.2 mph - N/A   Light Drizzle
2:55 PM 44.6 °F 40.2 °F 39.2 °F 81% 29.85 in 10.0 mi NE 8.1 mph - N/A   Light Drizzle
3:35 PM 42.8 °F 36.6 °F 39.2 °F 87% 29.81 in 3.0 mi NNE 11.5 mph - N/A Rain Light Rain
3:55 PM 42.8 °F 36.2 °F 39.2 °F 87% 29.79 in 3.0 mi NE 12.7 mph - N/A Rain Light Rain
4:15 PM 42.8 °F 37.0 °F 39.2 °F 87% 29.79 in 4.0 mi NNE 10.4 mph 13.8 mph N/A Rain Light Rain
4:35 PM 42.8 °F 37.5 °F 39.2 °F 87% 29.79 in 7.0 mi NE 9.2 mph - N/A Rain Light Rain
4:55 PM 42.8 °F 37.0 °F 39.2 °F 87% 29.79 in 10.0 mi NE 10.4 mph - N/A   Overcast
5:15 PM 42.8 °F 35.4 °F 39.2 °F 87% 29.89 in 4.0 mi WNW 15.0 mph - 0.06 in Rain Heavy Rain
5:35 PM 42.8 °F 38.6 °F 37.4 °F 81% 29.89 in 7.0 mi WNW 6.9 mph - 0.12 in Rain Rain
5:55 PM 42.8 °F 37.5 °F 37.4 °F 81% 29.84 in 7.0 mi NNE 9.2 mph - 0.18 in Rain Heavy Rain
6:15 PM 42.8 °F 34.3 °F 39.2 °F 87% 29.74 in 7.0 mi NE 19.6 mph - 0.04 in Rain Light Rain
6:35 PM 41.0 °F 31.1 °F 37.4 °F 87% 29.66 in 10.0 mi NE 23.0 mph 29.9 mph 0.04 in Rain Light Rain
6:55 PM 42.8 °F 34.0 °F 37.4 °F 81% 29.63 in 10.0 mi ENE 20.7 mph - 0.04 in Rain Light Rain
7:15 PM 42.8 °F 36.2 °F 37.4 °F 81% 29.70 in 10.0 mi ESE 12.7 mph 23.0 mph N/A   Scattered Clouds
7:35 PM 42.8 °F 36.2 °F 37.4 °F 81% 29.78 in 10.0 mi West 12.7 mph 19.6 mph N/A   Light Drizzle
7:55 PM 42.8 °F 35.8 °F 37.4 °F 81% 29.74 in 10.0 mi NW 13.8 mph 19.6 mph N/A   Light Drizzle
8:15 PM 41.0 °F 35.2 °F 37.4 °F 87% 29.80 in 10.0 mi NW 9.2 mph 19.6 mph N/A Rain Rain
8:35 PM 41.0 °F 35.8 °F 35.6 °F 81% 29.80 in 1.2 mi NW 8.1 mph - 0.23 in Rain Heavy Rain
8:55 PM 41.0 °F 33.5 °F 35.6 °F 81% 29.78 in 10.0 mi NNW 13.8 mph 21.9 mph 0.24 in Rain Light Rain
9:15 PM 41.0 °F 34.7 °F 35.6 °F 81% 29.79 in 10.0 mi North 10.4 mph - N/A   Overcast
9:35 PM 41.0 °F 33.1 °F 35.6 °F 81% 29.80 in 10.0 mi North 15.0 mph 23.0 mph N/A   Overcast
9:55 PM 41.0 °F 33.9 °F 35.6 °F 81% 29.81 in 10.0 mi North 12.7 mph 25.3 mph N/A   Overcast
10:15 PM 39.2 °F 30.8 °F 35.6 °F 87% 29.80 in 10.0 mi North 15.0 mph 24.2 mph N/A   Overcast
10:35 PM 39.2 °F 31.6 °F 35.6 °F 87% 29.80 in 10.0 mi North 12.7 mph 21.9 mph N/A   Overcast
10:55 PM 39.2 °F 30.5 °F 35.6 °F 87% 29.78 in 7.0 mi North 16.1 mph 23.0 mph N/A   Overcast
11:15 PM 39.2 °F 30.2 °F 35.6 °F 87% 29.75 in 7.0 mi North 17.3 mph 24.2 mph N/A   Overcast
11:35 PM 39.2 °F 29.8 °F 35.6 °F 87% 29.73 in 5.0 mi North 18.4 mph 23.0 mph N/A   Overcast
11:55 PM 39.2 °F 31.2 °F 35.6 °F 87% 29.77 in 4.0 mi North 13.8 mph 21.9 mph N/A Rain Rain